sensor_id;sensor_type;location;lat;lon;timestamp;pressure;altitude;pressure_sealevel;temperature;humidity
13695;BME280;6919;52.344;14.518;2022-08-04T00:01:23;100647.34;;;22.93;100.00
13695;BME280;6919;52.344;14.518;2022-08-04T00:04:03;100647.47;;;22.87;100.00
13695;BME280;6919;52.344;14.518;2022-08-04T00:06:53;100639.72;;;22.84;100.00
13695;BME280;6919;52.344;14.518;2022-08-04T00:09:36;100646.72;;;22.80;100.00
13695;BME280;6919;52.344;14.518;2022-08-04T00:12:09;100642.66;;;22.71;100.00
13695;BME280;6919;52.344;14.518;2022-08-04T00:14:47;100640.16;;;22.69;100.00
13695;BME280;6919;52.344;14.518;2022-08-04T00:17:19;100646.84;;;22.73;100.00
13695;BME280;6919;52.344;14.518;2022-08-04T00:19:54;100643.13;;;22.68;100.00
13695;BME280;6919;52.344;14.518;2022-08-04T00:22:27;100631.34;;;22.67;100.00
13695;BME280;6919;52.344;14.518;2022-08-04T00:25:00;100634.91;;;22.68;100.00
13695;BME280;6919;52.344;14.518;2022-08-04T00:27:31;100641.44;;;22.67;100.00
13695;BME280;6919;52.344;14.518;2022-08-04T00:30:06;100641.94;;;22.64;100.00
13695;BME280;6919;52.344;14.518;2022-08-04T00:32:34;100642.00;;;22.57;100.00
13695;BME280;6919;52.344;14.518;2022-08-04T00:35:04;100645.78;;;22.56;100.00
13695;BME280;6919;52.344;14.518;2022-08-04T00:37:32;100637.38;;;22.58;100.00
13695;BME280;6919;52.344;14.518;2022-08-04T00:40:14;100641.53;;;22.60;100.00
13695;BME280;6919;52.344;14.518;2022-08-04T00:43:02;100643.66;;;22.58;100.00
13695;BME280;6919;52.344;14.518;2022-08-04T00:46:27;100639.47;;;22.56;100.00
13695;BME280;6919;52.344;14.518;2022-08-04T00:49:28;100647.84;;;22.61;100.00
13695;BME280;6919;52.344;14.518;2022-08-04T00:52:21;100640.69;;;22.60;100.00
13695;BME280;6919;52.344;14.518;2022-08-04T00:55:18;100640.34;;;22.56;100.00
13695;BME280;6919;52.344;14.518;2022-08-04T00:58:13;100640.00;;;22.46;100.00
13695;BME280;6919;52.344;14.518;2022-08-04T01:00:57;100637.97;;;22.42;100.00
13695;BME280;6919;52.344;14.518;2022-08-04T01:03:48;100638.50;;;22.32;100.00
13695;BME280;6919;52.344;14.518;2022-08-04T01:06:34;100642.91;;;22.33;100.00
13695;BME280;6919;52.344;14.518;2022-08-04T01:09:31;100645.28;;;22.30;100.00
13695;BME280;6919;52.344;14.518;2022-08-04T01:12:19;100641.09;;;22.27;100.00
13695;BME280;6919;52.344;14.518;2022-08-04T01:15:04;100643.84;;;22.27;100.00
13695;BME280;6919;52.344;14.518;2022-08-04T01:17:45;100642.63;;;22.23;100.00
13695;BME280;6919;52.344;14.518;2022-08-04T01:20:25;100637.00;;;22.18;100.00
13695;BME280;6919;52.344;14.518;2022-08-04T01:26:52;100642.91;;;22.15;100.00
13695;BME280;6919;52.344;14.518;2022-08-04T01:29:30;100639.72;;;22.18;100.00
13695;BME280;6919;52.344;14.518;2022-08-04T01:32:19;100634.28;;;22.18;100.00
13695;BME280;6919;52.344;14.518;2022-08-04T01:35:00;100645.81;;;22.20;100.00
13695;BME280;6919;52.344;14.518;2022-08-04T01:37:48;100644.44;;;22.11;100.00
13695;BME280;6919;52.344;14.518;2022-08-04T01:40:17;100643.22;;;22.07;100.00
13695;BME280;6919;52.344;14.518;2022-08-04T01:42:51;100648.56;;;22.02;100.00
13695;BME280;6919;52.344;14.518;2022-08-04T01:45:24;100643.09;;;22.02;100.00
13695;BME280;6919;52.344;14.518;2022-08-04T01:47:54;100645.97;;;22.07;100.00
13695;BME280;6919;52.344;14.518;2022-08-04T01:50:24;100651.06;;;22.04;100.00
13695;BME280;6919;52.344;14.518;2022-08-04T01:52:54;100647.63;;;22.08;100.00
13695;BME280;6919;52.344;14.518;2022-08-04T01:55:25;100637.09;;;22.12;100.00
13695;BME280;6919;52.344;14.518;2022-08-04T01:58:18;100645.66;;;21.97;100.00
13695;BME280;6919;52.344;14.518;2022-08-04T02:00:57;100641.47;;;21.95;100.00
13695;BME280;6919;52.344;14.518;2022-08-04T02:03:33;100638.66;;;22.01;100.00
13695;BME280;6919;52.344;14.518;2022-08-04T02:06:37;100643.75;;;21.98;100.00
13695;BME280;6919;52.344;14.518;2022-08-04T02:09:19;100641.13;;;21.91;100.00
13695;BME280;6919;52.344;14.518;2022-08-04T02:12:02;100643.00;;;21.91;100.00
13695;BME280;6919;52.344;14.518;2022-08-04T02:14:54;100638.84;;;21.88;100.00
13695;BME280;6919;52.344;14.518;2022-08-04T02:17:31;100644.97;;;21.84;100.00
13695;BME280;6919;52.344;14.518;2022-08-04T02:20:11;100640.81;;;21.81;100.00
13695;BME280;6919;52.344;14.518;2022-08-04T02:22:52;100630.69;;;21.82;100.00
13695;BME280;6919;52.344;14.518;2022-08-04T02:25:25;100635.34;;;21.81;100.00
13695;BME280;6919;52.344;14.518;2022-08-04T02:28:20;100640.63;;;21.76;100.00
13695;BME280;6919;52.344;14.518;2022-08-04T02:31:10;100628.69;;;21.71;100.00
13695;BME280;6919;52.344;14.518;2022-08-04T02:33:45;100631.41;;;21.71;100.00
13695;BME280;6919;52.344;14.518;2022-08-04T02:36:22;100629.53;;;21.71;100.00
13695;BME280;6919;52.344;14.518;2022-08-04T02:38:55;100625.81;;;21.66;100.00
13695;BME280;6919;52.344;14.518;2022-08-04T02:41:26;100627.09;;;21.63;100.00
13695;BME280;6919;52.344;14.518;2022-08-04T02:43:57;100627.53;;;21.60;100.00
13695;BME280;6919;52.344;14.518;2022-08-04T02:46:28;100622.53;;;21.57;100.00
13695;BME280;6919;52.344;14.518;2022-08-04T02:49:02;100616.91;;;21.52;100.00
13695;BME280;6919;52.344;14.518;2022-08-04T02:51:35;100627.22;;;21.50;100.00
13695;BME280;6919;52.344;14.518;2022-08-04T02:54:05;100628.06;;;21.51;100.00
13695;BME280;6919;52.344;14.518;2022-08-04T02:56:36;100621.53;;;21.52;100.00
13695;BME280;6919;52.344;14.518;2022-08-04T02:59:07;100615.69;;;21.48;100.00
13695;BME280;6919;52.344;14.518;2022-08-04T03:01:37;100623.50;;;21.45;100.00
13695;BME280;6919;52.344;14.518;2022-08-04T03:04:50;100619.81;;;21.33;100.00
13695;BME280;6919;52.344;14.518;2022-08-04T03:07:56;100621.53;;;21.27;100.00
13695;BME280;6919;52.344;14.518;2022-08-04T03:11:09;100626.34;;;21.32;100.00
13695;BME280;6919;52.344;14.518;2022-08-04T03:14:26;100623.22;;;21.28;100.00
13695;BME280;6919;52.344;14.518;2022-08-04T03:17:49;100628.34;;;21.18;100.00
13695;BME280;6919;52.344;14.518;2022-08-04T03:21:12;100626.06;;;21.15;100.00
13695;BME280;6919;52.344;14.518;2022-08-04T03:24:31;100627.38;;;21.06;100.00
13695;BME280;6919;52.344;14.518;2022-08-04T03:30:19;100629.72;;;21.03;100.00
13695;BME280;6919;52.344;14.518;2022-08-04T03:33:57;100629.31;;;20.99;100.00
13695;BME280;6919;52.344;14.518;2022-08-04T03:37:14;100631.03;;;20.94;100.00
13695;BME280;6919;52.344;14.518;2022-08-04T03:40:30;100631.03;;;20.94;100.00
13695;BME280;6919;52.344;14.518;2022-08-04T03:43:58;100630.81;;;20.95;100.00
13695;BME280;6919;52.344;14.518;2022-08-04T03:46:53;100635.44;;;20.95;100.00
13695;BME280;6919;52.344;14.518;2022-08-04T03:53:27;100637.75;;;20.98;100.00
13695;BME280;6919;52.344;14.518;2022-08-04T03:56:40;100634.59;;;20.94;100.00
13695;BME280;6919;52.344;14.518;2022-08-04T04:00:03;100629.94;;;21.01;100.00
13695;BME280;6919;52.344;14.518;2022-08-04T04:06:36;100634.31;;;21.09;100.00
13695;BME280;6919;52.344;14.518;2022-08-04T04:10:10;100637.59;;;21.17;100.00
13695;BME280;6919;52.344;14.518;2022-08-04T04:16:28;100640.41;;;21.29;100.00
13695;BME280;6919;52.344;14.518;2022-08-04T04:19:31;100637.69;;;21.29;100.00
13695;BME280;6919;52.344;14.518;2022-08-04T04:22:20;100639.75;;;21.33;100.00
13695;BME280;6919;52.344;14.518;2022-08-04T04:25:05;100641.59;;;21.39;100.00
13695;BME280;6919;52.344;14.518;2022-08-04T04:27:58;100647.38;;;21.49;100.00
13695;BME280;6919;52.344;14.518;2022-08-04T04:31:02;100648.94;;;21.63;100.00
13695;BME280;6919;52.344;14.518;2022-08-04T04:33:54;100651.69;;;21.57;100.00
13695;BME280;6919;52.344;14.518;2022-08-04T04:36:37;100641.56;;;21.64;100.00
13695;BME280;6919;52.344;14.518;2022-08-04T04:39:23;100643.75;;;21.80;100.00
13695;BME280;6919;52.344;14.518;2022-08-04T04:42:23;100647.03;;;21.88;100.00
13695;BME280;6919;52.344;14.518;2022-08-04T04:45:23;100654.59;;;21.86;100.00
13695;BME280;6919;52.344;14.518;2022-08-04T04:48:08;100655.81;;;22.08;100.00
13695;BME280;6919;52.344;14.518;2022-08-04T04:51:06;100646.72;;;22.14;100.00
13695;BME280;6919;52.344;14.518;2022-08-04T04:53:57;100649.91;;;22.29;100.00
13695;BME280;6919;52.344;14.518;2022-08-04T04:56:40;100651.72;;;22.35;100.00
13695;BME280;6919;52.344;14.518;2022-08-04T04:59:17;100653.84;;;22.51;100.00
13695;BME280;6919;52.344;14.518;2022-08-04T05:02:18;100661.94;;;22.76;100.00
13695;BME280;6919;52.344;14.518;2022-08-04T05:05:18;100668.81;;;22.78;100.00
13695;BME280;6919;52.344;14.518;2022-08-04T05:08:27;100660.28;;;22.86;100.00
13695;BME280;6919;52.344;14.518;2022-08-04T05:12:02;100659.84;;;23.31;100.00
13695;BME280;6919;52.344;14.518;2022-08-04T05:15:00;100661.28;;;23.33;100.00
13695;BME280;6919;52.344;14.518;2022-08-04T05:17:36;100660.47;;;23.56;100.00
13695;BME280;6919;52.344;14.518;2022-08-04T05:20:09;100662.28;;;23.62;100.00
13695;BME280;6919;52.344;14.518;2022-08-04T05:22:47;100672.75;;;23.88;100.00
13695;BME280;6919;52.344;14.518;2022-08-04T05:25:22;100657.66;;;23.97;100.00
13695;BME280;6919;52.344;14.518;2022-08-04T05:28:02;100661.09;;;23.81;100.00
13695;BME280;6919;52.344;14.518;2022-08-04T05:30:38;100668.69;;;23.79;100.00
13695;BME280;6919;52.344;14.518;2022-08-04T05:33:18;100666.56;;;23.81;100.00
13695;BME280;6919;52.344;14.518;2022-08-04T05:35:58;100662.28;;;23.96;100.00
13695;BME280;6919;52.344;14.518;2022-08-04T05:38:52;100667.63;;;24.14;100.00
13695;BME280;6919;52.344;14.518;2022-08-04T05:41:27;100654.16;;;24.13;100.00
13695;BME280;6919;52.344;14.518;2022-08-04T05:44:14;100659.25;;;24.32;100.00
13695;BME280;6919;52.344;14.518;2022-08-04T05:46:48;100658.06;;;24.40;100.00
13695;BME280;6919;52.344;14.518;2022-08-04T05:49:22;100660.19;;;24.38;100.00
13695;BME280;6919;52.344;14.518;2022-08-04T05:51:54;100656.34;;;24.50;100.00
13695;BME280;6919;52.344;14.518;2022-08-04T05:54:24;100652.31;;;24.81;100.00
13695;BME280;6919;52.344;14.518;2022-08-04T05:56:53;100659.84;;;24.74;100.00
13695;BME280;6919;52.344;14.518;2022-08-04T05:59:23;100652.63;;;24.68;100.00
13695;BME280;6919;52.344;14.518;2022-08-04T06:01:57;100646.66;;;24.71;100.00
13695;BME280;6919;52.344;14.518;2022-08-04T06:04:32;100655.16;;;24.86;100.00
13695;BME280;6919;52.344;14.518;2022-08-04T06:07:03;100659.72;;;25.08;100.00
13695;BME280;6919;52.344;14.518;2022-08-04T06:09:32;100655.09;;;25.42;100.00
13695;BME280;6919;52.344;14.518;2022-08-04T06:12:06;100656.56;;;25.99;97.82
13695;BME280;6919;52.344;14.518;2022-08-04T06:14:40;100652.94;;;26.15;95.82
13695;BME280;6919;52.344;14.518;2022-08-04T06:17:23;100657.09;;;26.39;90.20
13695;BME280;6919;52.344;14.518;2022-08-04T06:20:14;100660.53;;;26.51;91.54
13695;BME280;6919;52.344;14.518;2022-08-04T06:22:55;100661.53;;;26.62;86.14
13695;BME280;6919;52.344;14.518;2022-08-04T06:25:28;100664.00;;;26.85;87.21
13695;BME280;6919;52.344;14.518;2022-08-04T06:28:00;100663.13;;;27.32;84.37
13695;BME280;6919;52.344;14.518;2022-08-04T06:30:30;100665.41;;;27.40;81.40
13695;BME280;6919;52.344;14.518;2022-08-04T06:33:02;100664.69;;;27.55;80.30
13695;BME280;6919;52.344;14.518;2022-08-04T06:35:40;100668.41;;;27.70;81.08
13695;BME280;6919;52.344;14.518;2022-08-04T06:38:10;100669.50;;;27.69;78.90
13695;BME280;6919;52.344;14.518;2022-08-04T06:40:41;100669.97;;;27.98;77.98
13695;BME280;6919;52.344;14.518;2022-08-04T06:43:11;100665.16;;;28.20;78.58
13695;BME280;6919;52.344;14.518;2022-08-04T06:45:41;100666.34;;;28.34;71.98
13695;BME280;6919;52.344;14.518;2022-08-04T06:48:16;100665.88;;;28.47;73.33
13695;BME280;6919;52.344;14.518;2022-08-04T06:50:49;100671.44;;;28.57;71.05
13695;BME280;6919;52.344;14.518;2022-08-04T06:53:37;100670.47;;;28.98;69.22
13695;BME280;6919;52.344;14.518;2022-08-04T06:56:08;100674.88;;;28.99;68.17
13695;BME280;6919;52.344;14.518;2022-08-04T06:58:39;100673.03;;;29.25;66.36
13695;BME280;6919;52.344;14.518;2022-08-04T07:01:08;100669.41;;;29.04;65.82
13695;BME280;6919;52.344;14.518;2022-08-04T07:03:39;100670.25;;;29.30;66.50
13695;BME280;6919;52.344;14.518;2022-08-04T07:06:07;100665.81;;;29.34;67.16
13695;BME280;6919;52.344;14.518;2022-08-04T07:08:41;100667.88;;;28.62;64.81
13695;BME280;6919;52.344;14.518;2022-08-04T07:11:10;100671.84;;;29.01;65.92
13695;BME280;6919;52.344;14.518;2022-08-04T07:13:40;100670.53;;;29.33;63.43
13695;BME280;6919;52.344;14.518;2022-08-04T07:16:15;100673.00;;;29.55;63.23
13695;BME280;6919;52.344;14.518;2022-08-04T07:18:45;100668.84;;;30.02;58.04
13695;BME280;6919;52.344;14.518;2022-08-04T07:21:20;100680.59;;;30.53;55.88
13695;BME280;6919;52.344;14.518;2022-08-04T07:23:50;100676.09;;;30.72;54.76
13695;BME280;6919;52.344;14.518;2022-08-04T07:26:26;100681.78;;;30.32;57.97
13695;BME280;6919;52.344;14.518;2022-08-04T07:28:55;100669.34;;;30.29;56.17
13695;BME280;6919;52.344;14.518;2022-08-04T07:31:26;100677.75;;;30.83;51.65
13695;BME280;6919;52.344;14.518;2022-08-04T07:34:03;100677.94;;;30.92;53.46
13695;BME280;6919;52.344;14.518;2022-08-04T07:36:47;100677.16;;;31.35;51.11
13695;BME280;6919;52.344;14.518;2022-08-04T07:39:20;100670.13;;;31.47;50.27
13695;BME280;6919;52.344;14.518;2022-08-04T07:41:57;100674.97;;;31.60;48.38
13695;BME280;6919;52.344;14.518;2022-08-04T07:44:29;100673.09;;;31.56;49.26
13695;BME280;6919;52.344;14.518;2022-08-04T07:46:59;100678.78;;;31.69;48.98
13695;BME280;6919;52.344;14.518;2022-08-04T07:49:29;100673.66;;;31.14;50.87
13695;BME280;6919;52.344;14.518;2022-08-04T07:52:19;100670.75;;;30.96;50.90
13695;BME280;6919;52.344;14.518;2022-08-04T07:54:49;100666.88;;;30.08;53.75
13695;BME280;6919;52.344;14.518;2022-08-04T07:57:19;100677.13;;;30.91;52.53
13695;BME280;6919;52.344;14.518;2022-08-04T08:00:10;100669.94;;;30.21;52.85
13695;BME280;6919;52.344;14.518;2022-08-04T08:02:41;100670.41;;;30.43;52.90
13695;BME280;6919;52.344;14.518;2022-08-04T08:05:13;100665.13;;;31.06;52.34
13695;BME280;6919;52.344;14.518;2022-08-04T08:07:45;100664.66;;;30.94;51.01
13695;BME280;6919;52.344;14.518;2022-08-04T08:10:21;100666.63;;;30.88;50.74
13695;BME280;6919;52.344;14.518;2022-08-04T08:12:52;100661.75;;;31.52;50.43
13695;BME280;6919;52.344;14.518;2022-08-04T08:15:21;100655.88;;;32.16;47.64
13695;BME280;6919;52.344;14.518;2022-08-04T08:17:50;100655.91;;;32.11;47.21
13695;BME280;6919;52.344;14.518;2022-08-04T08:20:30;100658.56;;;32.49;46.79
13695;BME280;6919;52.344;14.518;2022-08-04T08:23:01;100652.69;;;32.51;46.03
13695;BME280;6919;52.344;14.518;2022-08-04T08:25:32;100658.09;;;31.90;47.42
13695;BME280;6919;52.344;14.518;2022-08-04T08:28:03;100657.97;;;31.43;49.51
13695;BME280;6919;52.344;14.518;2022-08-04T08:30:33;100659.44;;;32.21;46.76
13695;BME280;6919;52.344;14.518;2022-08-04T08:33:05;100651.25;;;32.06;46.55
13695;BME280;6919;52.344;14.518;2022-08-04T08:35:47;100650.41;;;32.34;47.17
13695;BME280;6919;52.344;14.518;2022-08-04T08:38:36;100654.53;;;32.79;45.67
13695;BME280;6919;52.344;14.518;2022-08-04T08:42:08;100657.81;;;32.62;46.21
13695;BME280;6919;52.344;14.518;2022-08-04T08:45:14;100651.28;;;32.95;44.80
13695;BME280;6919;52.344;14.518;2022-08-04T08:48:20;100657.56;;;33.38;43.95
13695;BME280;6919;52.344;14.518;2022-08-04T08:51:45;100654.06;;;33.65;42.96
13695;BME280;6919;52.344;14.518;2022-08-04T08:54:53;100658.63;;;33.42;42.49
13695;BME280;6919;52.344;14.518;2022-08-04T08:57:45;100660.75;;;33.64;42.47
13695;BME280;6919;52.344;14.518;2022-08-04T09:00:41;100657.81;;;33.42;42.22
13695;BME280;6919;52.344;14.518;2022-08-04T09:04:06;100651.41;;;33.22;42.98
13695;BME280;6919;52.344;14.518;2022-08-04T09:07:16;100646.56;;;33.79;41.01
13695;BME280;6919;52.344;14.518;2022-08-04T09:10:03;100650.47;;;33.96;41.89
13695;BME280;6919;52.344;14.518;2022-08-04T09:12:40;100658.53;;;34.38;39.46
13695;BME280;6919;52.344;14.518;2022-08-04T09:15:15;100656.16;;;34.59;38.08
13695;BME280;6919;52.344;14.518;2022-08-04T09:17:51;100651.19;;;34.02;38.50
13695;BME280;6919;52.344;14.518;2022-08-04T09:20:30;100653.28;;;34.37;39.10
13695;BME280;6919;52.344;14.518;2022-08-04T09:23:16;100650.56;;;34.72;37.51
13695;BME280;6919;52.344;14.518;2022-08-04T09:25:55;100657.47;;;34.75;36.24
13695;BME280;6919;52.344;14.518;2022-08-04T09:28:28;100656.53;;;34.79;35.39
13695;BME280;6919;52.344;14.518;2022-08-04T09:31:23;100651.19;;;34.69;34.97
13695;BME280;6919;52.344;14.518;2022-08-04T09:34:04;100643.13;;;34.14;35.47
13695;BME280;6919;52.344;14.518;2022-08-04T09:36:51;100647.69;;;34.64;36.01
13695;BME280;6919;52.344;14.518;2022-08-04T09:39:32;100646.44;;;34.83;33.34
13695;BME280;6919;52.344;14.518;2022-08-04T09:42:19;100649.50;;;34.95;32.81
13695;BME280;6919;52.344;14.518;2022-08-04T09:45:00;100641.25;;;34.90;33.28
13695;BME280;6919;52.344;14.518;2022-08-04T09:47:38;100639.38;;;34.99;33.82
13695;BME280;6919;52.344;14.518;2022-08-04T09:50:31;100638.88;;;35.19;33.61
13695;BME280;6919;52.344;14.518;2022-08-04T09:53:17;100634.41;;;35.32;33.60
13695;BME280;6919;52.344;14.518;2022-08-04T09:55:59;100637.09;;;35.37;32.82
13695;BME280;6919;52.344;14.518;2022-08-04T09:58:48;100638.66;;;34.80;32.68
13695;BME280;6919;52.344;14.518;2022-08-04T10:01:22;100637.34;;;34.78;33.58
13695;BME280;6919;52.344;14.518;2022-08-04T10:03:59;100626.78;;;35.02;33.17
13695;BME280;6919;52.344;14.518;2022-08-04T10:06:47;100622.84;;;35.03;33.45
13695;BME280;6919;52.344;14.518;2022-08-04T10:09:33;100628.06;;;34.82;34.24
13695;BME280;6919;52.344;14.518;2022-08-04T10:12:26;100624.72;;;34.80;32.57
13695;BME280;6919;52.344;14.518;2022-08-04T10:15:08;100618.09;;;34.54;32.92
13695;BME280;6919;52.344;14.518;2022-08-04T10:18:06;100621.31;;;34.48;33.25
13695;BME280;6919;52.344;14.518;2022-08-04T10:20:57;100616.47;;;35.24;31.86
13695;BME280;6919;52.344;14.518;2022-08-04T10:24:05;100617.47;;;35.50;31.48
13695;BME280;6919;52.344;14.518;2022-08-04T10:26:49;100608.13;;;35.77;31.57
13695;BME280;6919;52.344;14.518;2022-08-04T10:29:30;100614.25;;;35.79;31.00
13695;BME280;6919;52.344;14.518;2022-08-04T10:32:06;100607.34;;;35.85;31.03
13695;BME280;6919;52.344;14.518;2022-08-04T10:34:43;100609.88;;;35.95;30.01
13695;BME280;6919;52.344;14.518;2022-08-04T10:37:22;100603.69;;;35.76;30.63
13695;BME280;6919;52.344;14.518;2022-08-04T10:40:17;100593.16;;;35.73;30.14
13695;BME280;6919;52.344;14.518;2022-08-04T10:43:32;100595.63;;;36.05;29.43
13695;BME280;6919;52.344;14.518;2022-08-04T10:46:13;100591.22;;;36.13;29.55
13695;BME280;6919;52.344;14.518;2022-08-04T10:48:52;100594.13;;;35.99;28.98
13695;BME280;6919;52.344;14.518;2022-08-04T10:51:27;100588.47;;;35.60;29.83
13695;BME280;6919;52.344;14.518;2022-08-04T10:54:26;100592.00;;;36.05;29.94
13695;BME280;6919;52.344;14.518;2022-08-04T10:57:03;100584.91;;;36.29;28.93
13695;BME280;6919;52.344;14.518;2022-08-04T10:59:44;100583.63;;;36.52;28.99
13695;BME280;6919;52.344;14.518;2022-08-04T11:02:36;100576.22;;;36.65;28.59
13695;BME280;6919;52.344;14.518;2022-08-04T11:05:22;100578.50;;;36.37;29.05
13695;BME280;6919;52.344;14.518;2022-08-04T11:07:57;100578.38;;;36.68;28.90
13695;BME280;6919;52.344;14.518;2022-08-04T11:10:32;100584.00;;;36.76;28.14
13695;BME280;6919;52.344;14.518;2022-08-04T11:13:09;100572.19;;;37.05;28.44
13695;BME280;6919;52.344;14.518;2022-08-04T11:16:02;100563.78;;;37.05;28.79
13695;BME280;6919;52.344;14.518;2022-08-04T11:18:43;100578.03;;;36.61;28.01
13695;BME280;6919;52.344;14.518;2022-08-04T11:21:19;100573.00;;;36.80;28.70
13695;BME280;6919;52.344;14.518;2022-08-04T11:24:01;100570.50;;;36.61;28.42
13695;BME280;6919;52.344;14.518;2022-08-04T11:26:44;100562.66;;;36.24;29.07
13695;BME280;6919;52.344;14.518;2022-08-04T11:29:21;100568.03;;;36.68;28.74
13695;BME280;6919;52.344;14.518;2022-08-04T11:31:58;100567.56;;;36.92;28.38
13695;BME280;6919;52.344;14.518;2022-08-04T11:34:33;100575.22;;;36.52;28.36
13695;BME280;6919;52.344;14.518;2022-08-04T11:37:12;100563.13;;;36.09;28.74
13695;BME280;6919;52.344;14.518;2022-08-04T11:39:46;100561.25;;;36.35;28.43
13695;BME280;6919;52.344;14.518;2022-08-04T11:42:21;100561.84;;;36.97;28.56
13695;BME280;6919;52.344;14.518;2022-08-04T11:44:56;100565.41;;;37.14;28.04
13695;BME280;6919;52.344;14.518;2022-08-04T11:47:29;100564.44;;;37.10;28.33
13695;BME280;6919;52.344;14.518;2022-08-04T11:50:07;100558.03;;;37.01;27.83
13695;BME280;6919;52.344;14.518;2022-08-04T11:52:40;100556.91;;;36.94;28.00
13695;BME280;6919;52.344;14.518;2022-08-04T11:55:15;100548.72;;;37.60;27.45
13695;BME280;6919;52.344;14.518;2022-08-04T11:57:45;100554.00;;;37.62;27.44
13695;BME280;6919;52.344;14.518;2022-08-04T12:00:21;100566.41;;;37.27;27.22
13695;BME280;6919;52.344;14.518;2022-08-04T12:03:11;100559.00;;;37.22;27.73
13695;BME280;6919;52.344;14.518;2022-08-04T12:05:54;100555.69;;;37.37;27.63
13695;BME280;6919;52.344;14.518;2022-08-04T12:08:42;100555.25;;;37.81;27.33
13695;BME280;6919;52.344;14.518;2022-08-04T12:11:39;100554.72;;;37.88;27.29
13695;BME280;6919;52.344;14.518;2022-08-04T12:14:24;100551.81;;;37.76;26.49
13695;BME280;6919;52.344;14.518;2022-08-04T12:16:58;100551.66;;;37.72;26.79
13695;BME280;6919;52.344;14.518;2022-08-04T12:19:38;100556.59;;;37.67;27.18
13695;BME280;6919;52.344;14.518;2022-08-04T12:22:36;100560.31;;;37.33;27.34
13695;BME280;6919;52.344;14.518;2022-08-04T12:25:09;100552.75;;;36.57;27.52
13695;BME280;6919;52.344;14.518;2022-08-04T12:27:44;100542.22;;;37.31;27.43
13695;BME280;6919;52.344;14.518;2022-08-04T12:30:17;100547.16;;;37.25;27.39
13695;BME280;6919;52.344;14.518;2022-08-04T12:33:19;100542.53;;;37.29;27.32
13695;BME280;6919;52.344;14.518;2022-08-04T12:36:19;100546.00;;;37.18;26.92
13695;BME280;6919;52.344;14.518;2022-08-04T12:38:59;100542.41;;;36.83;27.51
13695;BME280;6919;52.344;14.518;2022-08-04T12:41:38;100544.34;;;37.08;27.29
13695;BME280;6919;52.344;14.518;2022-08-04T12:44:12;100539.88;;;37.50;26.84
13695;BME280;6919;52.344;14.518;2022-08-04T12:47:03;100530.13;;;37.93;26.46
13695;BME280;6919;52.344;14.518;2022-08-04T12:49:56;100527.09;;;38.16;26.55
13695;BME280;6919;52.344;14.518;2022-08-04T12:52:32;100526.41;;;37.81;26.72
13695;BME280;6919;52.344;14.518;2022-08-04T12:55:28;100516.59;;;37.75;26.27
13695;BME280;6919;52.344;14.518;2022-08-04T12:58:02;100519.03;;;37.13;27.47
13695;BME280;6919;52.344;14.518;2022-08-04T13:00:37;100521.63;;;37.35;26.88
13695;BME280;6919;52.344;14.518;2022-08-04T13:03:13;100518.75;;;37.69;26.53
13695;BME280;6919;52.344;14.518;2022-08-04T13:05:44;100515.41;;;38.05;26.32
13695;BME280;6919;52.344;14.518;2022-08-04T13:08:14;100513.09;;;38.16;26.08
13695;BME280;6919;52.344;14.518;2022-08-04T13:10:52;100509.88;;;38.26;25.37
13695;BME280;6919;52.344;14.518;2022-08-04T13:13:26;100511.19;;;39.43;25.84
13695;BME280;6919;52.344;14.518;2022-08-04T13:16:00;100505.16;;;40.01;24.83
13695;BME280;6919;52.344;14.518;2022-08-04T13:18:33;100510.53;;;40.42;23.85
13695;BME280;6919;52.344;14.518;2022-08-04T13:21:12;100502.56;;;39.72;24.01
13695;BME280;6919;52.344;14.518;2022-08-04T13:23:49;100487.50;;;39.32;24.86
13695;BME280;6919;52.344;14.518;2022-08-04T13:26:49;100501.06;;;38.36;25.25
13695;BME280;6919;52.344;14.518;2022-08-04T13:29:26;100505.53;;;38.37;25.69
13695;BME280;6919;52.344;14.518;2022-08-04T13:32:20;100506.31;;;38.17;25.89
13695;BME280;6919;52.344;14.518;2022-08-04T13:34:53;100495.69;;;38.01;25.63
13695;BME280;6919;52.344;14.518;2022-08-04T13:37:29;100493.94;;;37.51;26.78
13695;BME280;6919;52.344;14.518;2022-08-04T13:40:01;100489.94;;;36.97;26.65
13695;BME280;6919;52.344;14.518;2022-08-04T13:42:33;100489.44;;;36.61;27.20
13695;BME280;6919;52.344;14.518;2022-08-04T13:45:05;100483.03;;;36.95;26.99
13695;BME280;6919;52.344;14.518;2022-08-04T13:47:38;100487.56;;;37.33;26.70
13695;BME280;6919;52.344;14.518;2022-08-04T13:50:17;100479.28;;;37.62;26.43
13695;BME280;6919;52.344;14.518;2022-08-04T13:52:53;100477.47;;;37.49;26.77
13695;BME280;6919;52.344;14.518;2022-08-04T13:55:25;100483.56;;;37.89;26.46
13695;BME280;6919;52.344;14.518;2022-08-04T13:58:04;100473.19;;;38.39;25.90
13695;BME280;6919;52.344;14.518;2022-08-04T14:00:46;100481.19;;;39.35;24.78
13695;BME280;6919;52.344;14.518;2022-08-04T14:03:24;100484.00;;;38.70;24.95
13695;BME280;6919;52.344;14.518;2022-08-04T14:06:15;100479.19;;;38.91;25.19
13695;BME280;6919;52.344;14.518;2022-08-04T14:08:49;100470.13;;;38.53;25.44
13695;BME280;6919;52.344;14.518;2022-08-04T14:11:21;100470.22;;;38.97;25.55
13695;BME280;6919;52.344;14.518;2022-08-04T14:14:17;100464.19;;;39.07;25.28
13695;BME280;6919;52.344;14.518;2022-08-04T14:16:58;100462.41;;;40.19;24.36
13695;BME280;6919;52.344;14.518;2022-08-04T14:19:29;100464.56;;;39.62;24.66
13695;BME280;6919;52.344;14.518;2022-08-04T14:22:29;100461.66;;;38.61;25.11
13695;BME280;6919;52.344;14.518;2022-08-04T14:25:05;100455.72;;;38.63;25.35